Home > Products > Valid Products > TAF

000
FTUS43 KILX 181127
TAFPIA
TAF
KPIA 181127Z 1812/1912 16004KT P6SM BKN250
      TEMPO 1812/1813 5SM HZ
     FM181300 14006KT P6SM BKN250
     FM181800 13012KT P6SM SCT070 BKN150
     FM190000 09008KT P6SM SCT050 OVC120=



000
FTUS43 KILX 181127
TAFSPI
TAF
KSPI 181127Z 1812/1912 16005KT P6SM BKN250
      TEMPO 1812/1813 5SM BR
     FM181300 14006KT P6SM BKN250
     FM181800 13012KT P6SM SCT070 BKN150
     FM190000 09008KT P6SM SCT050 OVC120=



000
FTUS43 KILX 181127
TAFDEC
TAF
KDEC 181127Z 1812/1912 17004KT P6SM BKN250
      TEMPO 1812/1813 5SM BR
     FM181300 15006KT P6SM BKN250
     FM181800 12012KT P6SM SCT150 OVC200
     FM190000 09010KT P6SM SCT050 OVC150=



000
FTUS43 KILX 181127
TAFPIA
TAF
KPIA 181127Z 1812/1912 16004KT P6SM BKN250
      TEMPO 1812/1813 5SM HZ
     FM181300 14006KT P6SM BKN250
     FM181800 13012KT P6SM SCT070 BKN150
     FM190000 09008KT P6SM SCT050 OVC120=



000
FTUS43 KILX 181127
TAFBMI
TAF
KBMI 181127Z 1812/1912 16005KT P6SM BKN250
      TEMPO 1812/1813 4SM BR
     FM181300 15006KT P6SM BKN250
     FM181800 13013KT P6SM SCT150 OVC200
     FM190000 09010KT P6SM SCT050 BKN150=



000
FTUS43 KILX 181127
TAFCMI
TAF
KCMI 181127Z 1812/1912 13004KT P6SM BKN250
      TEMPO 1812/1813 4SM BR
     FM181300 15006KT P6SM BKN250
     FM181800 12011KT P6SM BKN200
     FM190000 08010KT P6SM SCT050 BKN150=



000
FTUS43 KILX 181127
TAFDEC
TAF
KDEC 181127Z 1812/1912 17004KT P6SM BKN250
      TEMPO 1812/1813 5SM BR
     FM181300 15006KT P6SM BKN250
     FM181800 12012KT P6SM SCT150 OVC200
     FM190000 09010KT P6SM SCT050 OVC150=



000
FTUS43 KILX 181127
TAFSPI
TAF
KSPI 181127Z 1812/1912 16005KT P6SM BKN250
      TEMPO 1812/1813 5SM BR
     FM181300 14006KT P6SM BKN250
     FM181800 13012KT P6SM SCT070 BKN150
     FM190000 09008KT P6SM SCT050 OVC120=



000
FTUS43 KILX 181127
TAFBMI
TAF
KBMI 181127Z 1812/1912 16005KT P6SM BKN250
      TEMPO 1812/1813 4SM BR
     FM181300 15006KT P6SM BKN250
     FM181800 13013KT P6SM SCT150 OVC200
     FM190000 09010KT P6SM SCT050 BKN150=



000
FTUS43 KILX 181127
TAFCMI
TAF
KCMI 181127Z 1812/1912 13004KT P6SM BKN250
      TEMPO 1812/1813 4SM BR
     FM181300 15006KT P6SM BKN250
     FM181800 12011KT P6SM BKN200
     FM190000 08010KT P6SM SCT050 BKN150=



000
FTUS43 KILX 181120
TAFDEC
TAF
KDEC 181120Z 1812/1912 17004KT P6SM BKN250
      TEMPO 1812/1813 5SM BR
     FM181300 15006KT P6SM BKN250
     FM181800 12012KT P6SM SCT150 OVC200
     FM190000 09010KT P6SM SCT050 OVC150=



000
FTUS43 KILX 181120
TAFBMI
TAF
KBMI 181120Z 1812/1912 16005KT P6SM BKN250
      TEMPO 1812/1813 4SM BR
     FM181300 15006KT P6SM BKN250
     FM181800 13013KT P6SM SCT150 OVC200
     FM190000 09010KT P6SM SCT050 BKN150=



000
FTUS43 KILX 181120
TAFPIA
TAF
KPIA 181120Z 1812/1912 16004KT P6SM BKN250
      TEMPO 1812/1813 5SM HZ
     FM181300 14006KT P6SM BKN250
     FM181800 13012KT P6SM SCT070 BKN150
     FM190000 09008KT P6SM SCT050 OVC120=



000
FTUS43 KILX 181120
TAFSPI
TAF
KSPI 181120Z 1812/1912 16005KT P6SM BKN250
      TEMPO 1812/1813 5SM BR
     FM181300 14006KT P6SM BKN250
     FM181800 13012KT P6SM SCT070 BKN150
     FM190000 09008KT P6SM SCT050 OVC120=



000
FTUS43 KILX 181120
TAFCMI
TAF
KCMI 181120Z 1812/1912 13004KT P6SM BKN250
      TEMPO 1812/1813 4SM BR
     FM181300 15006KT P6SM BKN250
     FM181800 12011KT P6SM BKN200
     FM190000 08010KT P6SM SCT050 BKN150=



000
FTUS43 KILX 180539
TAFBMI
TAF
KBMI 180539Z 1806/1906 16005KT P6SM SCT060
      TEMPO 1809/1813 4SM BR
     FM181300 15006KT P6SM BKN250
     FM181800 13010G15KT P6SM SCT150 OVC200
     FM190000 10010KT P6SM SCT050 BKN150=



000
FTUS43 KILX 180539
TAFPIA
TAF
KPIA 180539Z 1806/1906 16004KT P6SM SCT060
      TEMPO 1809/1813 4SM BR
     FM181300 14006KT P6SM BKN250
     FM181800 13010G15KT P6SM SCT060 BKN140
     FM190000 12008KT P6SM VCSH SCT050 OVC120=



000
FTUS43 KILX 180539
TAFCMI
TAF
KCMI 180539Z 1806/1906 13004KT P6SM SCT150
      TEMPO 1809/1813 4SM BR
     FM181300 15006KT P6SM BKN250
     FM181800 12010KT P6SM BKN200
     FM190000 08010KT P6SM SCT050 BKN150=



000
FTUS43 KILX 180539
TAFDEC
TAF
KDEC 180539Z 1806/1906 17004KT P6SM SCT150
      TEMPO 1808/1812 4SM BR
     FM181300 15006KT P6SM BKN250
     FM181800 13010G15KT P6SM SCT150 OVC200
     FM190000 10010KT P6SM SCT050 OVC150=



000
FTUS43 KILX 180539
TAFSPI
TAF
KSPI 180539Z 1806/1906 16005KT P6SM SCT150
      TEMPO 1808/1812 4SM BR
     FM181300 14006KT P6SM BKN250
     FM181800 13010G15KT P6SM SCT060 BKN140
     FM190000 11008KT P6SM VCSH SCT050 OVC120=



000
FTUS43 KILX 180539
TAFPIA
TAF
KPIA 180539Z 1806/1906 16004KT P6SM SCT060
      TEMPO 1809/1813 4SM BR
     FM181300 14006KT P6SM BKN250
     FM181800 13010G15KT P6SM SCT060 BKN140
     FM190000 12008KT P6SM VCSH SCT050 OVC120=



000
FTUS43 KILX 180539
TAFDEC
TAF
KDEC 180539Z 1806/1906 17004KT P6SM SCT150
      TEMPO 1808/1812 4SM BR
     FM181300 15006KT P6SM BKN250
     FM181800 13010G15KT P6SM SCT150 OVC200
     FM190000 10010KT P6SM SCT050 OVC150=



000
FTUS43 KILX 180539
TAFCMI
TAF
KCMI 180539Z 1806/1906 13004KT P6SM SCT150
      TEMPO 1809/1813 4SM BR
     FM181300 15006KT P6SM BKN250
     FM181800 12010KT P6SM BKN200
     FM190000 08010KT P6SM SCT050 BKN150=



000
FTUS43 KILX 180539
TAFSPI
TAF
KSPI 180539Z 1806/1906 16005KT P6SM SCT150
      TEMPO 1808/1812 4SM BR
     FM181300 14006KT P6SM BKN250
     FM181800 13010G15KT P6SM SCT060 BKN140
     FM190000 11008KT P6SM VCSH SCT050 OVC120=



000
FTUS43 KILX 180539
TAFBMI
TAF
KBMI 180539Z 1806/1906 16005KT P6SM SCT060
      TEMPO 1809/1813 4SM BR
     FM181300 15006KT P6SM BKN250
     FM181800 13010G15KT P6SM SCT150 OVC200
     FM190000 10010KT P6SM SCT050 BKN150=



000
FTUS43 KILX 180449 AAA
TAFCMI
TAF AMD
KCMI 180449Z 1805/1824 13004KT P6SM SCT250
     FM180800 VRB04KT 4SM BR BKN250
     FM181200 15006KT P6SM BKN250
     FM181800 12010KT P6SM BKN200=



000
FTUS43 KILX 180448 AAA
TAFBMI
TAF AMD
KBMI 180448Z 1805/1824 17005KT P6SM SCT250
     FM180800 VRB03KT 3SM BR BKN250
     FM181200 15006KT P6SM BKN250
     FM181800 13010G15KT P6SM SCT150 BKN200=



000
FTUS43 KILX 180447 AAA
TAFPIA
TAF AMD
KPIA 180447Z 1805/1824 17005KT P6SM SCT070
     FM180800 VRB03KT 4SM BR BKN250
     FM181300 14006KT P6SM BKN250
     FM181800 13010G15KT P6SM SCT060 BKN140=



000
FTUS43 KILX 172329
TAFSPI
TAF
KSPI 172329Z 1800/1824 15004KT P6SM FEW070 BKN250
     FM180600 VRB03KT 4SM BR BKN250
     FM181200 15006KT P6SM BKN250
     FM181800 13010G15KT P6SM SCT060 BKN140=



000
FTUS43 KILX 172329
TAFCMI
TAF
KCMI 172329Z 1800/1824 VRB03KT P6SM FEW070 BKN250
     FM180500 VRB04KT 4SM BR BKN250
     FM181200 15006KT P6SM BKN250
     FM181800 12010KT P6SM BKN200=



000
FTUS43 KILX 172329
TAFPIA
TAF
KPIA 172329Z 1800/1824 VRB03KT P6SM SCT070 BKN250
     FM180500 VRB03KT 4SM BR BKN250
     FM181300 14006KT P6SM BKN250
     FM181800 13010G15KT P6SM SCT060 BKN140=



000
FTUS43 KILX 172329
TAFDEC
TAF
KDEC 172329Z 1800/1824 VRB03KT P6SM BKN250
     FM180600 VRB03KT 4SM BR BKN250
     FM181200 15006KT P6SM BKN250
     FM181800 13010G15KT P6SM SCT150 BKN200=



000
FTUS43 KILX 172329
TAFBMI
TAF
KBMI 172329Z 1800/1824 VRB04KT P6SM SCT070 BKN250
     FM180500 VRB03KT 3SM BR BKN250
     FM181200 15006KT P6SM BKN250
     FM181800 13010G15KT P6SM SCT150 BKN200=



000
FTUS43 KILX 172329
TAFSPI
TAF
KSPI 172329Z 1800/1824 15004KT P6SM FEW070 BKN250
     FM180600 VRB03KT 4SM BR BKN250
     FM181200 15006KT P6SM BKN250
     FM181800 13010G15KT P6SM SCT060 BKN140=



000
FTUS43 KILX 172329
TAFBMI
TAF
KBMI 172329Z 1800/1824 VRB04KT P6SM SCT070 BKN250
     FM180500 VRB03KT 3SM BR BKN250
     FM181200 15006KT P6SM BKN250
     FM181800 13010G15KT P6SM SCT150 BKN200=



000
FTUS43 KILX 172329
TAFPIA
TAF
KPIA 172329Z 1800/1824 VRB03KT P6SM SCT070 BKN250
     FM180500 VRB03KT 4SM BR BKN250
     FM181300 14006KT P6SM BKN250
     FM181800 13010G15KT P6SM SCT060 BKN140=



000
FTUS43 KILX 172329
TAFDEC
TAF
KDEC 172329Z 1800/1824 VRB03KT P6SM BKN250
     FM180600 VRB03KT 4SM BR BKN250
     FM181200 15006KT P6SM BKN250
     FM181800 13010G15KT P6SM SCT150 BKN200=



000
FTUS43 KILX 172329
TAFCMI
TAF
KCMI 172329Z 1800/1824 VRB03KT P6SM FEW070 BKN250
     FM180500 VRB04KT 4SM BR BKN250
     FM181200 15006KT P6SM BKN250
     FM181800 12010KT P6SM BKN200=



000
FTUS43 KILX 171720
TAFPIA
TAF
KPIA 171720Z 1718/1818 VRB04KT P6SM SCT050
     FM180500 VRB03KT 4SM BR BKN250
     FM181200 15006KT P6SM BKN250=



000
FTUS43 KILX 171720
TAFBMI
TAF
KBMI 171720Z 1718/1818 VRB05KT P6SM SCT050 BKN250
     FM180500 VRB03KT 3SM BR BKN250
     FM181200 15006KT P6SM BKN250=



000
FTUS43 KILX 171720
TAFDEC
TAF
KDEC 171720Z 1718/1818 VRB05KT P6SM SCT040 BKN250
      TEMPO 1719/1723 BKN040
     FM172300 VRB05KT P6SM BKN250
     FM180500 VRB03KT 4SM BR BKN250
     FM181200 15006KT P6SM BKN250=



000
FTUS43 KILX 171720
TAFSPI
TAF
KSPI 171720Z 1718/1818 VRB06KT P6SM SCT045 BKN250
      TEMPO 1719/1723 BKN040
     FM172300 VRB05KT P6SM BKN250
     FM180500 VRB03KT 4SM BR BKN250
     FM181200 15006KT P6SM BKN250=



000
FTUS43 KILX 171720
TAFCMI
TAF
KCMI 171720Z 1718/1818 VRB05KT P6SM SCT045 BKN250
      TEMPO 1720/1722 BKN045
     FM172300 VRB05KT P6SM BKN250
     FM180500 VRB04KT 4SM BR BKN250
     FM181200 15006KT P6SM BKN250=



000
FTUS43 KILX 171136 CCA
TAFPIA
TAF COR
KPIA 171136Z 1712/1812 VRB03KT P6SM BKN250
     FM171500 VRB04KT P6SM BKN250
     FM180500 VRB03KT 4SM BR BKN250=



000
FTUS43 KILX 171132
TAFPIA
TAF
KPIA 171132Z 1712/1812 VRB03KT P6SM BKN250
      TEMPO 1712/1714 4SM BR
     FM171500 VRB04KT P6SM BKN250
     FM180500 VRB03KT 4SM BR BKN250=



000
FTUS43 KILX 171132
TAFBMI
TAF
KBMI 171132Z 1712/1812 VRB04KT 3SM BR BKN250
      TEMPO 1712/1714 1SM BR
     FM171500 VRB05KT P6SM BKN250
     FM180500 VRB03KT 3SM BR BKN250=



000
FTUS43 KILX 171132
TAFSPI
TAF
KSPI 171132Z 1712/1812 VRB03KT P6SM BKN250
     FM172000 VRB05KT P6SM BKN250
     FM180500 VRB03KT 4SM BR BKN250=



000
FTUS43 KILX 171132
TAFCMI
TAF
KCMI 171132Z 1712/1812 VRB03KT 1/4SM FG VV001
      TEMPO 1712/1714 3SM BR SCT002 BKN250
     FM171400 VRB05KT P6SM BKN250
     FM180500 VRB04KT 4SM BR BKN250=



000
FTUS43 KILX 171132
TAFDEC
TAF
KDEC 171132Z 1712/1812 VRB03KT 4SM BR BKN250
      TEMPO 1712/1714 2SM BR
     FM171400 VRB05KT P6SM BKN250
     FM180500 VRB03KT 4SM BR BKN250=



000
FTUS43 KILX 170923 AAA
TAFDEC
TAF AMD
KDEC 170923Z 1709/1806 VRB04KT 3SM BR SCT250
      TEMPO 1709/1713 3/4SM BR
     FM171400 15003KT P6SM SCT250
     FM171800 16006KT P6SM SCT040 BKN250=



000
FTUS43 KILX 170923 AAA
TAFDEC
TAF AMD
KDEC 170923Z 1709/1806 VRB04KT 3SM BR SCT250
      TEMPO 1709/1713 3/4SM BR
     FM171400 15003KT P6SM SCT250
     FM171800 16006KT P6SM SCT040 BKN250=



000
FTUS43 KILX 170741 AAA
TAFCMI
TAF AMD
KCMI 170741Z 1708/1806 VRB04KT 1/4SM FG VV002
      TEMPO 1712/1714 3SM BR SCT250
     FM171400 15003KT P6SM SCT250
     FM171800 17005KT P6SM SCT040 BKN250=



000
FTUS43 KILX 170527
TAFDEC
TAF
KDEC 170527Z 1706/1806 VRB03KT P6SM SCT250
     FM170800 VRB04KT 5SM BR SCT250
     FM171100 VRB04KT 3SM BR SCT250
     FM171500 15003KT P6SM SCT250
     FM171800 16006KT P6SM SCT040 BKN250=



000
FTUS43 KILX 170527
TAFSPI
TAF
KSPI 170527Z 1706/1806 VRB03KT P6SM SCT250
     FM170900 VRB04KT 4SM BR SCT070 SCT250
     FM171300 15003KT P6SM SCT250
     FM171800 17006KT P6SM SCT040 BKN250=



000
FTUS43 KILX 170527
TAFCMI
TAF
KCMI 170527Z 1706/1806 14006KT 5SM BR SCT250
      TEMPO 1706/1708 1SM BR SCT250
     FM170800 VRB04KT 2SM BR SCT250
      TEMPO 1710/1713 1/2SM FG
     FM171500 15003KT P6SM SCT250
     FM171800 17005KT P6SM SCT040 BKN250=



000
FTUS43 KILX 170527
TAFBMI
TAF
KBMI 170527Z 1706/1806 VRB03KT P6SM SCT250
     FM170900 VRB04KT 4SM BR SCT250
     FM171500 15003KT P6SM SCT250
     FM171800 17007KT P6SM SCT040 BKN250=



000
FTUS43 KILX 170527
TAFPIA
TAF
KPIA 170527Z 1706/1806 VRB03KT P6SM SCT250
     FM170800 VRB05KT P6SM SCT070 SCT250
     FM171300 15003KT P6SM SCT250
     FM171800 17005KT P6SM SCT040 BKN250=



000
FTUS43 KILX 170527
TAFBMI
TAF
KBMI 170527Z 1706/1806 VRB03KT P6SM SCT250
     FM170900 VRB04KT 4SM BR SCT250
     FM171500 15003KT P6SM SCT250
     FM171800 17007KT P6SM SCT040 BKN250=



000
FTUS43 KILX 170527
TAFPIA
TAF
KPIA 170527Z 1706/1806 VRB03KT P6SM SCT250
     FM170800 VRB05KT P6SM SCT070 SCT250
     FM171300 15003KT P6SM SCT250
     FM171800 17005KT P6SM SCT040 BKN250=



000
FTUS43 KILX 170527
TAFSPI
TAF
KSPI 170527Z 1706/1806 VRB03KT P6SM SCT250
     FM170900 VRB04KT 4SM BR SCT070 SCT250
     FM171300 15003KT P6SM SCT250
     FM171800 17006KT P6SM SCT040 BKN250=



000
FTUS43 KILX 170527
TAFDEC
TAF
KDEC 170527Z 1706/1806 VRB03KT P6SM SCT250
     FM170800 VRB04KT 5SM BR SCT250
     FM171100 VRB04KT 3SM BR SCT250
     FM171500 15003KT P6SM SCT250
     FM171800 16006KT P6SM SCT040 BKN250=



000
FTUS43 KILX 170527
TAFCMI
TAF
KCMI 170527Z 1706/1806 14006KT 5SM BR SCT250
      TEMPO 1706/1708 1SM BR SCT250
     FM170800 VRB04KT 2SM BR SCT250
      TEMPO 1710/1713 1/2SM FG
     FM171500 15003KT P6SM SCT250
     FM171800 17005KT P6SM SCT040 BKN250=



000
FTUS43 KILX 170324 AAA
TAFCMI
TAF AMD
KCMI 170324Z 1703/1724 14006KT 4SM BR SCT250
     FM170700 VRB04KT 2SM BR SCT250
     FM171500 15003KT P6SM SCT250
     FM171800 12005KT P6SM SCT040 BKN250=



000
FTUS43 KILX 162320
TAFSPI
TAF
KSPI 162320Z 1700/1724 VRB03KT P6SM SCT040
     FM170800 VRB04KT 4SM BR SCT250
     FM171300 15003KT P6SM SCT250
     FM171800 11006KT P6SM SCT040 BKN250=



000
FTUS43 KILX 162320
TAFPIA
TAF
KPIA 162320Z 1700/1724 VRB03KT P6SM FEW050
     FM170800 VRB05KT 4SM BR SCT250
     FM171300 15003KT P6SM SCT250
     FM171800 15005KT P6SM SCT040 BKN250=



000
FTUS43 KILX 162320
TAFBMI
TAF
KBMI 162320Z 1700/1724 VRB03KT P6SM SCT045
     FM170700 VRB04KT 4SM BR SCT250
     FM171100 VRB04KT 2SM BR SCT250
     FM171500 15003KT P6SM SCT250
     FM171800 14007KT P6SM SCT040 BKN250=



000
FTUS43 KILX 162320
TAFCMI
TAF
KCMI 162320Z 1700/1724 VRB04KT P6SM SCT040
     FM170400 VRB03KT 6SM BR SCT250
     FM170600 VRB04KT 4SM BR SCT250
     FM170900 VRB04KT 2SM BR SCT250
     FM171500 15003KT P6SM SCT250
     FM171800 12005KT P6SM SCT040 BKN250=



000
FTUS43 KILX 162320
TAFDEC
TAF
KDEC 162320Z 1700/1724 VRB05KT P6SM SCT045
     FM170300 VRB03KT P6SM SCT250
     FM170700 VRB04KT 5SM BR SCT250
     FM171100 VRB04KT 3SM BR SCT250
     FM171500 15003KT P6SM SCT250
     FM171800 13006KT P6SM SCT040 BKN250=



000
FTUS43 KILX 161730 CCA
TAFDEC
TAF COR
KDEC 161730Z 1618/1718 VRB06KT P6SM BKN035
     FM170300 VRB03KT P6SM BKN250
     FM170700 VRB04KT 5SM BR BKN250
     FM171100 VRB04KT 3SM BR SKC
     FM171500 15003KT P6SM SKC=



000
FTUS43 KILX 161730 CCA
TAFDEC
TAF COR
KDEC 161730Z 1618/1718 VRB06KT P6SM BKN035
     FM170300 VRB03KT P6SM BKN250
     FM170700 VRB04KT 5SM BR BKN250
     FM171100 VRB04KT 3SM BR SKC
     FM171500 15003KT P6SM SKC=



000
FTUS43 KILX 161728
TAFBMI
TAF
KBMI 161728Z 1618/1718 VRB06KT P6SM BKN040
     FM170000 VRB03KT P6SM BKN250
     FM170700 VRB04KT 4SM BR BKN250
     FM171100 VRB04KT 2SM BR SKC
     FM171500 15003KT P6SM SKC=



000
FTUS43 KILX 161728
TAFCMI
TAF
KCMI 161728Z 1618/1718 VRB05KT P6SM OVC015
     FM162000 VRB06KT P6SM BKN040
     FM170400 VRB03KT P6SM BKN250
     FM170700 VRB04KT 4SM BR BKN250
     FM171100 VRB04KT 2SM BR SKC
     FM171500 15003KT P6SM SKC=



000
FTUS43 KILX 161728
TAFDEC
TAF
KDEC 161728Z 1618/1718 VRB05KT P6SM OVC015
     FM162000 VRB06KT P6SM BKN040
     FM170300 VRB03KT P6SM BKN250
     FM170700 VRB04KT 5SM BR BKN250
     FM171100 VRB04KT 3SM BR SKC
     FM171500 15003KT P6SM SKC=



000
FTUS43 KILX 161728
TAFSPI
TAF
KSPI 161728Z 1618/1718 VRB06KT P6SM BKN040
     FM170000 VRB03KT P6SM BKN250
     FM170800 VRB04KT 4SM BR BKN250
     FM171300 15003KT P6SM SKC=



000
FTUS43 KILX 161728
TAFPIA
TAF
KPIA 161728Z 1618/1718 VRB05KT P6SM BKN040
     FM170000 VRB03KT P6SM BKN250
     FM170800 VRB05KT 4SM BR BKN250
     FM171300 15003KT P6SM SKC=



000
FTUS43 KILX 161728
TAFDEC
TAF
KDEC 161728Z 1618/1718 VRB05KT P6SM OVC015
     FM162000 VRB06KT P6SM BKN040
     FM170300 VRB03KT P6SM BKN250
     FM170700 VRB04KT 5SM BR BKN250
     FM171100 VRB04KT 3SM BR SKC
     FM171500 15003KT P6SM SKC=



000
FTUS43 KILX 161728
TAFCMI
TAF
KCMI 161728Z 1618/1718 VRB05KT P6SM OVC015
     FM162000 VRB06KT P6SM BKN040
     FM170400 VRB03KT P6SM BKN250
     FM170700 VRB04KT 4SM BR BKN250
     FM171100 VRB04KT 2SM BR SKC
     FM171500 15003KT P6SM SKC=



000
FTUS43 KILX 161728
TAFSPI
TAF
KSPI 161728Z 1618/1718 VRB06KT P6SM BKN040
     FM170000 VRB03KT P6SM BKN250
     FM170800 VRB04KT 4SM BR BKN250
     FM171300 15003KT P6SM SKC=



000
FTUS43 KILX 161728
TAFPIA
TAF
KPIA 161728Z 1618/1718 VRB05KT P6SM BKN040
     FM170000 VRB03KT P6SM BKN250
     FM170800 VRB05KT 4SM BR BKN250
     FM171300 15003KT P6SM SKC=



000
FTUS43 KILX 161728
TAFBMI
TAF
KBMI 161728Z 1618/1718 VRB06KT P6SM BKN040
     FM170000 VRB03KT P6SM BKN250
     FM170700 VRB04KT 4SM BR BKN250
     FM171100 VRB04KT 2SM BR SKC
     FM171500 15003KT P6SM SKC=



000
FTUS43 KILX 161703 AAC
TAFBMI
TAF AMD
KBMI 161703Z 1617/1712 VRB06KT P6SM BKN040
     FM170000 VRB03KT P6SM SKC=



000
FTUS43 KILX 161703 AAC
TAFBMI
TAF AMD
KBMI 161703Z 1617/1712 VRB06KT P6SM BKN040
     FM170000 VRB03KT P6SM SKC=



000
FTUS43 KILX 161607 AAB
TAFBMI
TAF AMD
KBMI 161607Z 1616/1712 07005KT 4SM BR OVC004
     FM161800 VRB05KT 5SM BR OVC015
     FM162000 VRB06KT P6SM BKN040
     FM170000 VRB03KT P6SM SKC=



000
FTUS43 KILX 161607 AAC
TAFDEC
TAF AMD
KDEC 161607Z 1616/1712 13004KT P6SM OVC010
     FM161700 VRB05KT P6SM OVC015
     FM162000 VRB06KT P6SM BKN040
     FM170300 VRB03KT P6SM SKC=



000
FTUS43 KILX 161501 AAB
TAFDEC
TAF AMD
KDEC 161501Z 1615/1712 13004KT P6SM OVC005
     FM161700 VRB05KT P6SM OVC015
     FM162000 VRB06KT P6SM BKN040
     FM170300 VRB03KT P6SM SKC=



000
FTUS43 KILX 161501 AAB
TAFDEC
TAF AMD
KDEC 161501Z 1615/1712 13004KT P6SM OVC005
     FM161700 VRB05KT P6SM OVC015
     FM162000 VRB06KT P6SM BKN040
     FM170300 VRB03KT P6SM SKC=



000
FTUS43 KILX 161500 AAB
TAFCMI
TAF AMD
KCMI 161500Z 1615/1712 07006KT 3SM BR OVC007
      TEMPO 1615/1617 1/2SM FG OVC002
     FM161700 VRB05KT P6SM OVC015
     FM162000 VRB06KT P6SM BKN040
     FM170400 VRB03KT P6SM SKC=



000
FTUS43 KILX 161500 AAB
TAFCMI
TAF AMD
KCMI 161500Z 1615/1712 07006KT 3SM BR OVC007
      TEMPO 1615/1617 1/2SM FG OVC002
     FM161700 VRB05KT P6SM OVC015
     FM162000 VRB06KT P6SM BKN040
     FM170400 VRB03KT P6SM SKC=



000
FTUS43 KILX 161408 AAA
TAFCMI
TAF AMD
KCMI 161408Z 1614/1712 07006KT 3SM BR OVC007
      TEMPO 1614/1615 1/2SM FG OVC002
     FM161500 VRB05KT P6SM OVC015
     FM162000 VRB06KT P6SM BKN040
     FM170400 VRB03KT P6SM SKC=



000
FTUS43 KILX 161406 AAA
TAFBMI
TAF AMD
KBMI 161406Z 1614/1712 07005KT 2SM BR OVC007
      TEMPO 1614/1616 1/4SM FG OVC001
     FM161600 VRB05KT 5SM BR OVC015
     FM161800 VRB06KT P6SM BKN040
     FM170000 VRB03KT P6SM SKC=



000
FTUS43 KILX 161406 AAA
TAFBMI
TAF AMD
KBMI 161406Z 1614/1712 07005KT 2SM BR OVC007
      TEMPO 1614/1616 1/4SM FG OVC001
     FM161600 VRB05KT 5SM BR OVC015
     FM161800 VRB06KT P6SM BKN040
     FM170000 VRB03KT P6SM SKC=



000
FTUS43 KILX 161238 AAA
TAFDEC
TAF AMD
KDEC 161238Z 1613/1712 13004KT 3SM BR OVC007
      TEMPO 1613/1614 1/2SM FG OVC004
     FM161500 VRB05KT P6SM OVC015
     FM161900 VRB06KT P6SM BKN040
     FM170300 VRB03KT P6SM SKC=



000
FTUS43 KILX 161238 AAA
TAFDEC
TAF AMD
KDEC 161238Z 1613/1712 13004KT 3SM BR OVC007
      TEMPO 1613/1614 1/2SM FG OVC004
     FM161500 VRB05KT P6SM OVC015
     FM161900 VRB06KT P6SM BKN040
     FM170300 VRB03KT P6SM SKC=



000
FTUS43 KILX 161237 AAA
TAFPIA
TAF AMD
KPIA 161237Z 1613/1712 09004KT P6SM OVC035
      TEMPO 1613/1615 OVC015
     FM161600 VRB05KT P6SM BKN040
     FM170000 VRB03KT P6SM SKC=



000
FTUS43 KILX 161237 AAA
TAFPIA
TAF AMD
KPIA 161237Z 1613/1712 09004KT P6SM OVC035
      TEMPO 1613/1615 OVC015
     FM161600 VRB05KT P6SM BKN040
     FM170000 VRB03KT P6SM SKC=



000
FTUS43 KILX 161123 CCA
TAFPIA
TAF COR
KPIA 161123Z 1612/1712 09004KT P6SM OVC035
      TEMPO 1612/1615 OVC025
     FM161600 VRB05KT P6SM BKN040
     FM170000 VRB03KT P6SM SKC=



000
FTUS43 KILX 161123 CCA
TAFPIA
TAF COR
KPIA 161123Z 1612/1712 09004KT P6SM OVC035
      TEMPO 1612/1615 OVC025
     FM161600 VRB05KT P6SM BKN040
     FM170000 VRB03KT P6SM SKC=



000
FTUS43 KILX 161122
TAFCMI
TAF
KCMI 161122Z 1612/1712 07006KT 3SM BR OVC007
      TEMPO 1612/1614 1SM BR OVC003
     FM161500 VRB05KT P6SM OVC015
     FM162000 VRB06KT P6SM BKN040
     FM170400 VRB03KT P6SM SKC=



000
FTUS43 KILX 161122
TAFBMI
TAF
KBMI 161122Z 1612/1712 07005KT 2SM BR OVC007
      TEMPO 1612/1614 1/2SM FG OVC001
     FM161400 VRB05KT 5SM BR OVC015
     FM161800 VRB06KT P6SM BKN040
     FM170000 VRB03KT P6SM SKC=



000
FTUS43 KILX 161122
TAFDEC
TAF
KDEC 161122Z 1612/1712 13004KT 6SM BR OVC007
      TEMPO 1612/1614 3SM BR OVC004
     FM161500 VRB05KT P6SM OVC015
     FM161900 VRB06KT P6SM BKN040
     FM170300 VRB03KT P6SM SKC=



000
FTUS43 KILX 161122
TAFPIA
TAF
KPIA 161122Z 1612/1712 09004KT 4SM BR OVC035
      TEMPO 1612/1615 OVC025
     FM161600 VRB05KT P6SM BKN040
     FM170000 VRB03KT P6SM SKC=



000
FTUS43 KILX 161122
TAFCMI
TAF
KCMI 161122Z 1612/1712 07006KT 3SM BR OVC007
      TEMPO 1612/1614 1SM BR OVC003
     FM161500 VRB05KT P6SM OVC015
     FM162000 VRB06KT P6SM BKN040
     FM170400 VRB03KT P6SM SKC=



000
FTUS43 KILX 161122
TAFSPI
TAF
KSPI 161122Z 1612/1712 13004KT P6SM OVC012
      TEMPO 1612/1614 5SM BR OVC007
     FM161400 VRB05KT P6SM OVC025
     FM161700 VRB06KT P6SM BKN040
     FM170000 VRB03KT P6SM SKC=



000
FTUS43 KILX 161122
TAFPIA
TAF
KPIA 161122Z 1612/1712 09004KT 4SM BR OVC035
      TEMPO 1612/1615 OVC025
     FM161600 VRB05KT P6SM BKN040
     FM170000 VRB03KT P6SM SKC=



000
FTUS43 KILX 161122
TAFBMI
TAF
KBMI 161122Z 1612/1712 07005KT 2SM BR OVC007
      TEMPO 1612/1614 1/2SM FG OVC001
     FM161400 VRB05KT 5SM BR OVC015
     FM161800 VRB06KT P6SM BKN040
     FM170000 VRB03KT P6SM SKC=



000
FTUS43 KILX 161122
TAFDEC
TAF
KDEC 161122Z 1612/1712 13004KT 6SM BR OVC007
      TEMPO 1612/1614 3SM BR OVC004
     FM161500 VRB05KT P6SM OVC015
     FM161900 VRB06KT P6SM BKN040
     FM170300 VRB03KT P6SM SKC=



000
FTUS43 KILX 161122
TAFSPI
TAF
KSPI 161122Z 1612/1712 13004KT P6SM OVC012
      TEMPO 1612/1614 5SM BR OVC007
     FM161400 VRB05KT P6SM OVC025
     FM161700 VRB06KT P6SM BKN040
     FM170000 VRB03KT P6SM SKC=



000
FTUS43 KILX 161056 AAC
TAFBMI
TAF AMD
KBMI 161056Z 1611/1706 10005KT 6SM BR OVC007
      TEMPO 1611/1613 1SM BR OVC003
     FM161800 VRB06KT P6SM BKN040=



000
FTUS43 KILX 160959 AAB
TAFBMI
TAF AMD
KBMI 160959Z 1610/1706 10005KT 6SM BR OVC005
     FM161800 VRB06KT P6SM BKN040=



000
FTUS43 KILX 160910 AAA
TAFDEC
TAF AMD
KDEC 160910Z 1609/1706 12008KT 6SM BR OVC007
     FM161800 VRB05KT P6SM OVC040=



000
FTUS43 KILX 160910 AAA
TAFCMI
TAF AMD
KCMI 160910Z 1609/1706 11005KT 2SM BR OVC007
     FM161800 28006KT P6SM OVC040=



000
FTUS43 KILX 160910 AAA
TAFBMI
TAF AMD
KBMI 160910Z 1609/1706 10005KT 6SM BR OVC010
     FM161800 VRB06KT P6SM BKN040=



000
FTUS43 KILX 160531
TAFPIA
TAF
KPIA 160531Z 1606/1706 10007KT P6SM OVC050
     FM161200 09004KT 4SM BR OVC025
     FM161600 VRB05KT P6SM BKN040=



000
FTUS43 KILX 160531
TAFSPI
TAF
KSPI 160531Z 1606/1706 11006KT P6SM OVC040
     FM161200 VRB04KT 4SM BR OVC012
     FM161800 27005KT P6SM BKN050
     FM170000 VRB03KT P6SM SCT040=



000
FTUS43 KILX 160531
TAFDEC
TAF
KDEC 160531Z 1606/1706 10006KT P6SM VCSH OVC040
      TEMPO 1606/1608 5SM -SHRA BKN030 OVC040
     FM161000 14005KT 4SM BR VCSH OVC012
     FM161800 VRB05KT P6SM OVC040=



000
FTUS43 KILX 160531
TAFBMI
TAF
KBMI 160531Z 1606/1706 11010KT P6SM VCSH OVC040
     FM161000 10005KT 4SM BR OVC020
     FM161800 VRB06KT P6SM BKN040=



000
FTUS43 KILX 160531
TAFCMI
TAF
KCMI 160531Z 1606/1706 11012KT P6SM VCSH OVC050
      TEMPO 1606/1609 5SM -SHRA BKN030 OVC040
     FM160900 11005KT 4SM BR VCSH OVC012
     FM161800 28006KT P6SM OVC040=



000
FTUS43 KILX 160435 AAA
TAFSPI
TAF AMD
KSPI 160435Z 1605/1624 11006KT P6SM OVC040
     FM161200 VRB04KT 4SM BR OVC012
     FM161800 27005KT P6SM BKN050=



000
FTUS43 KILX 160303 AAA
TAFCMI
TAF AMD
KCMI 160303Z 1603/1624 10010KT P6SM VCSH OVC050
      TEMPO 1605/1609 5SM -SHRA BKN030 OVC040
     FM160900 12005KT 4SM BR VCSH OVC012
     FM161800 25006KT P6SM VCSH OVC040=



000
FTUS43 KILX 160256 AAA
TAFPIA
TAF AMD
KPIA 160256Z 1603/1624 11010KT P6SM OVC060
     FM160800 09006KT P6SM VCSH OVC025
     FM161800 VRB05KT P6SM BKN040=



000
FTUS43 KILX 160238 AAA
TAFDEC
TAF AMD
KDEC 160238Z 1603/1624 09010KT P6SM VCSH SCT040 OVC060
      TEMPO 1603/1605 5SM -SHRA BKN030 OVC040
     FM160500 08006KT P6SM VCSH OVC025
     FM161000 14005KT 4SM BR VCSH OVC012
     FM161800 25005KT P6SM VCSH OVC040=



000
FTUS43 KILX 152330
TAFPIA
TAF
KPIA 152330Z 1600/1624 09012KT P6SM SCT120
     FM160200 09008KT P6SM VCSH SCT050 BKN100
     FM160800 09006KT P6SM VCSH OVC025
     FM161800 VRB05KT P6SM BKN040=



000
FTUS43 KILX 152330
TAFDEC
TAF
KDEC 152330Z 1600/1624 10015G20KT P6SM VCSH OVC050
     FM160200 10010KT P6SM VCSH SCT040 OVC060
     FM160400 08006KT P6SM VCSH OVC025
     FM161000 14005KT 4SM BR VCSH OVC012
     FM161800 25005KT P6SM VCSH OVC040=



000
FTUS43 KILX 152330
TAFCMI
TAF
KCMI 152330Z 1600/1624 09020KT P6SM VCSH OVC050
      TEMPO 1600/1602 6SM SHRA BKN040
     FM160200 09012KT P6SM VCSH OVC015
     FM161000 12005KT 4SM BR VCSH OVC012
     FM161800 25006KT P6SM VCSH OVC040=



000
FTUS43 KILX 152330
TAFSPI
TAF
KSPI 152330Z 1600/1624 10012G18KT P6SM VCSH OVC060
     FM160200 10008KT P6SM VCSH SCT040 OVC060
     FM160400 11006KT P6SM VCSH OVC025
     FM161000 12004KT 4SM BR OVC012
     FM161800 27005KT P6SM BKN050=



000
FTUS43 KILX 152330
TAFDEC
TAF
KDEC 152330Z 1600/1624 10015G20KT P6SM VCSH OVC050
     FM160200 10010KT P6SM VCSH SCT040 OVC060
     FM160400 08006KT P6SM VCSH OVC025
     FM161000 14005KT 4SM BR VCSH OVC012
     FM161800 25005KT P6SM VCSH OVC040=



000
FTUS43 KILX 152330
TAFSPI
TAF
KSPI 152330Z 1600/1624 10012G18KT P6SM VCSH OVC060
     FM160200 10008KT P6SM VCSH SCT040 OVC060
     FM160400 11006KT P6SM VCSH OVC025
     FM161000 12004KT 4SM BR OVC012
     FM161800 27005KT P6SM BKN050=



000
FTUS43 KILX 152330
TAFCMI
TAF
KCMI 152330Z 1600/1624 09020KT P6SM VCSH OVC050
      TEMPO 1600/1602 6SM SHRA BKN040
     FM160200 09012KT P6SM VCSH OVC015
     FM161000 12005KT 4SM BR VCSH OVC012
     FM161800 25006KT P6SM VCSH OVC040=



000
FTUS43 KILX 152330
TAFPIA
TAF
KPIA 152330Z 1600/1624 09012KT P6SM SCT120
     FM160200 09008KT P6SM VCSH SCT050 BKN100
     FM160800 09006KT P6SM VCSH OVC025
     FM161800 VRB05KT P6SM BKN040=



000
FTUS43 KILX 152330
TAFBMI
TAF
KBMI 152330Z 1600/1624 09015G20KT P6SM BKN120
     FM160100 09010KT P6SM VCSH SCT040 BKN100
     FM160600 08006KT P6SM VCSH OVC025
     FM161800 VRB06KT P6SM BKN040=



000
FTUS43 KILX 152330
TAFBMI
TAF
KBMI 152330Z 1600/1624 09015G20KT P6SM BKN120
     FM160100 09010KT P6SM VCSH SCT040 BKN100
     FM160600 08006KT P6SM VCSH OVC025
     FM161800 VRB06KT P6SM BKN040=



000
FTUS43 KILX 151727
TAFSPI
TAF
KSPI 151727Z 1518/1618 09014G23KT P6SM SCT130
     FM160000 09008KT P6SM VCSH SCT040 BKN100
     FM160400 08006KT P6SM VCSH OVC015=



000
FTUS43 KILX 151727
TAFCMI
TAF
KCMI 151727Z 1518/1618 09015G25KT P6SM SCT130
     FM160000 09012KT P6SM VCSH SCT040 BKN100
     FM160400 06006KT P6SM VCSH OVC015
     FM161200 16005KT 5SM BR VCSH OVC012=



000
FTUS43 KILX 151727
TAFDEC
TAF
KDEC 151727Z 1518/1618 09014G23KT P6SM SCT130
     FM160000 09008KT P6SM VCSH SCT040 BKN100
     FM160400 08006KT P6SM VCSH OVC015
     FM161200 16005KT 5SM BR VCSH OVC012=



000
FTUS43 KILX 151727
TAFPIA
TAF
KPIA 151727Z 1518/1618 10013G20KT P6SM SCT130
     FM160000 09008KT P6SM VCSH SCT040 BKN100
     FM160800 05006KT P6SM VCSH OVC025=



000
FTUS43 KILX 151727
TAFBMI
TAF
KBMI 151727Z 1518/1618 09015G25KT P6SM SCT130
     FM160000 09010KT P6SM VCSH SCT040 BKN100
     FM160600 08006KT P6SM VCSH OVC025=



    US Dept of Commerce
    National Oceanic and Atmospheric Administration
    National Weather Service
    1325 East West Highway
    Silver Spring, MD 20910
    Page Author: NWS Internet Services Team
Disclaimer
Information Quality
Credits
Glossary
Privacy Policy
Freedom of Information Act (FOIA)
About Us
Career Opportunities